createdAt,value
2023-03-30T00:01:28.858Z,42.05
2023-03-30T00:03:56.200Z,42.45
2023-03-30T00:06:23.709Z,42.98
2023-03-30T00:08:58.532Z,43.95
2023-03-30T00:11:28.135Z,42.33
2023-03-30T00:13:55.608Z,43.06
2023-03-30T00:16:23.129Z,42.59
2023-03-30T00:18:50.751Z,44.05
2023-03-30T00:21:21.549Z,43.09
2023-03-30T00:23:49.829Z,43.64
2023-03-30T00:26:17.683Z,44.36
2023-03-30T00:28:45.215Z,44.45
2023-03-30T00:31:13.115Z,42.98
2023-03-30T00:33:45.726Z,43.48
2023-03-30T00:36:13.974Z,44.59
2023-03-30T00:38:41.238Z,44.01
2023-03-30T00:41:09.573Z,44.20
2023-03-30T00:43:59.591Z,44.45
2023-03-30T00:46:28.787Z,44.23
2023-03-30T00:48:59.317Z,44.28
2023-03-30T00:51:29.337Z,44.05
2023-03-30T00:54:12.458Z,44.67
2023-03-30T00:56:40.277Z,44.02
2023-03-30T00:59:13.682Z,44.36
2023-03-30T01:01:41.991Z,45.21
2023-03-30T01:04:12.280Z,44.79
2023-03-30T01:06:43.735Z,44.65
2023-03-30T01:09:12.216Z,44.57
2023-03-30T01:11:39.995Z,45.28
2023-03-30T01:14:10.547Z,43.98
2023-03-30T01:16:40.872Z,44.54
2023-03-30T01:19:44.041Z,45.07
2023-03-30T01:22:29.746Z,44.86
2023-03-30T01:25:27.681Z,44.77
2023-03-30T01:28:06.891Z,45.62
2023-03-30T01:31:01.920Z,45.97
2023-03-30T01:33:47.324Z,47.12
2023-03-30T01:36:32.819Z,46.86
2023-03-30T01:39:39.917Z,46.71
2023-03-30T01:42:33.004Z,45.02
2023-03-30T01:45:20.486Z,46.11
2023-03-30T01:47:58.857Z,46.21
2023-03-30T01:50:33.126Z,46.81
2023-03-30T01:53:08.889Z,47.09
2023-03-30T01:55:42.224Z,48.05
2023-03-30T01:58:22.420Z,47.82
2023-03-30T02:00:51.512Z,47.48
2023-03-30T02:03:28.604Z,48.45
2023-03-30T02:06:18.753Z,48.14
2023-03-30T02:08:49.790Z,47.88
2023-03-30T02:11:17.042Z,48.45
2023-03-30T02:13:45.612Z,48.43
2023-03-30T02:16:18.597Z,49.04
2023-03-30T02:18:46.655Z,48.80
2023-03-30T02:21:13.751Z,47.96
2023-03-30T02:23:45.492Z,48.76
2023-03-30T02:26:13.856Z,48.81
2023-03-30T02:28:41.261Z,49.30
2023-03-30T02:31:17.174Z,49.70
2023-03-30T02:34:04.521Z,49.33
2023-03-30T02:37:10.220Z,48.92
2023-03-30T02:39:59.869Z,50.26
2023-03-30T02:42:48.249Z,50.63
2023-03-30T02:45:43.096Z,50.52
2023-03-30T02:48:38.594Z,50.57
2023-03-30T02:51:14.950Z,51.40
2023-03-30T02:54:38.871Z,51.73
2023-03-30T02:57:53.544Z,52.13
2023-03-30T03:00:52.427Z,52.14
2023-03-30T03:03:33.654Z,53.16
2023-03-30T03:06:02.938Z,53.60
2023-03-30T03:08:39.917Z,53.80
2023-03-30T03:11:10.001Z,53.96
2023-03-30T03:13:37.870Z,54.08
2023-03-30T03:16:06.311Z,54.09
2023-03-30T03:18:35.202Z,54.64
2023-03-30T03:21:02.366Z,53.81
2023-03-30T03:23:29.832Z,54.76
2023-03-30T03:25:57.117Z,54.75
2023-03-30T03:28:24.335Z,54.94
2023-03-30T03:30:55.924Z,54.32
2023-03-30T03:33:24.881Z,54.91
2023-03-30T03:36:01.752Z,54.91
2023-03-30T03:38:33.517Z,54.61
2023-03-30T03:41:01.218Z,54.97
2023-03-30T03:43:30.144Z,54.70
2023-03-30T03:45:57.301Z,55.02
2023-03-30T03:48:25.492Z,54.70
2023-03-30T03:50:54.714Z,54.94
2023-03-30T03:53:23.370Z,54.67
2023-03-30T03:55:55.052Z,54.80
2023-03-30T03:58:22.593Z,54.95
2023-03-30T04:00:51.235Z,55.23
2023-03-30T04:03:19.211Z,55.52
2023-03-30T04:05:46.362Z,55.14
2023-03-30T04:08:13.478Z,55.55
2023-03-30T04:10:41.896Z,55.77
2023-03-30T04:13:24.519Z,55.89
2023-03-30T04:15:57.501Z,55.75
2023-03-30T04:18:33.713Z,56.24
2023-03-30T04:21:30.113Z,56.19
2023-03-30T04:24:29.916Z,56.67
2023-03-30T04:27:17.115Z,56.58
2023-03-30T04:30:06.444Z,56.70
2023-03-30T04:33:03.084Z,56.46
2023-03-30T04:35:50.957Z,56.82
2023-03-30T04:38:59.061Z,57.09
2023-03-30T04:41:51.353Z,57.26
2023-03-30T04:44:44.496Z,56.95
2023-03-30T04:47:20.114Z,57.53
2023-03-30T04:50:04.419Z,58.72
2023-03-30T04:52:49.978Z,58.15
2023-03-30T04:55:32.305Z,57.76
2023-03-30T04:58:12.140Z,57.97
2023-03-30T05:00:39.640Z,57.87
2023-03-30T05:03:27.390Z,58.12
2023-03-30T05:05:54.919Z,58.63
2023-03-30T05:08:54.231Z,59.73
2023-03-30T05:11:44.220Z,59.76
2023-03-30T05:14:20.428Z,59.70
2023-03-30T05:17:19.457Z,60.07
2023-03-30T05:20:01.404Z,60.62
2023-03-30T05:22:47.121Z,61.40
2023-03-30T05:25:48.982Z,60.86
2023-03-30T05:28:34.578Z,61.40
2023-03-30T05:31:22.919Z,61.30
2023-03-30T05:34:21.097Z,60.65
2023-03-30T05:36:54.251Z,60.22
2023-03-30T05:39:36.417Z,62.05
2023-03-30T05:42:32.566Z,61.80
2023-03-30T05:45:08.602Z,61.94
2023-03-30T05:47:54.804Z,61.83
2023-03-30T05:50:40.840Z,62.27
2023-03-30T05:53:12.438Z,61.64
2023-03-30T05:56:18.069Z,61.26
2023-03-30T05:59:05.131Z,62.86
2023-03-30T06:01:54.437Z,62.94
2023-03-30T06:04:22.493Z,61.95
2023-03-30T06:06:56.098Z,62.24
2023-03-30T06:09:24.184Z,62.65
2023-03-30T06:11:53.905Z,62.38
2023-03-30T06:14:24.246Z,62.48
2023-03-30T06:17:17.786Z,62.04
2023-03-30T06:19:45.064Z,61.99
2023-03-30T06:22:16.315Z,61.83
2023-03-30T06:24:48.226Z,62.45
2023-03-30T06:27:15.312Z,62.22
2023-03-30T06:29:42.353Z,61.51
2023-03-30T06:32:09.877Z,62.78
2023-03-30T06:34:55.303Z,63.10
2023-03-30T06:37:25.416Z,63.47
2023-03-30T06:39:52.913Z,62.66
2023-03-30T06:42:20.007Z,63.62
2023-03-30T06:45:03.614Z,63.46
2023-03-30T06:47:31.713Z,63.08
2023-03-30T06:49:59.242Z,63.25
2023-03-30T06:52:53.338Z,61.91
2023-03-30T06:55:21.988Z,62.77
2023-03-30T06:57:48.952Z,62.69
2023-03-30T07:00:18.602Z,62.14
2023-03-30T07:03:20.923Z,61.80
2023-03-30T07:05:58.668Z,62.01
2023-03-30T07:08:37.306Z,62.22
2023-03-30T07:11:07.258Z,63.22
2023-03-30T07:13:37.370Z,63.45
2023-03-30T07:16:04.975Z,62.41
2023-03-30T07:18:32.779Z,62.19
2023-03-30T07:20:59.870Z,61.45
2023-03-30T07:23:31.361Z,61.64
2023-03-30T07:25:58.652Z,61.70
2023-03-30T07:28:40.665Z,61.52
2023-03-30T07:31:11.405Z,61.83
2023-03-30T07:33:41.186Z,63.31
2023-03-30T07:36:11.707Z,63.02
2023-03-30T07:38:38.905Z,63.21
2023-03-30T07:41:10.894Z,64.84
2023-03-30T07:43:40.793Z,64.35
2023-03-30T07:46:10.125Z,64.36
2023-03-30T07:48:40.518Z,63.95
2023-03-30T07:51:28.551Z,64.28
2023-03-30T07:54:04.829Z,65.29
2023-03-30T07:56:46.214Z,64.10
2023-03-30T07:59:13.738Z,64.07
2023-03-30T08:01:43.068Z,64.58
2023-03-30T08:04:18.344Z,63.51
2023-03-30T08:06:45.767Z,64.11
2023-03-30T08:09:13.537Z,62.57
2023-03-30T08:11:41.922Z,63.21
2023-03-30T08:14:09.147Z,63.79
2023-03-30T08:16:36.218Z,64.53
2023-03-30T08:19:03.366Z,64.50
2023-03-30T08:21:30.334Z,63.96
2023-03-30T08:23:59.101Z,64.45
2023-03-30T08:26:26.995Z,64.23
2023-03-30T08:28:54.202Z,63.82
2023-03-30T08:31:22.025Z,64.31
2023-03-30T08:33:49.850Z,63.90
2023-03-30T08:36:17.006Z,64.13
2023-03-30T08:38:45.411Z,64.27
2023-03-30T08:41:29.218Z,64.11
2023-03-30T08:44:21.659Z,62.78
2023-03-30T08:46:50.219Z,62.88
2023-03-30T08:49:19.805Z,63.75
2023-03-30T08:51:51.308Z,63.94
2023-03-30T08:54:20.908Z,63.38
2023-03-30T08:57:08.979Z,63.95
2023-03-30T08:59:46.813Z,64.96
2023-03-30T09:02:22.240Z,64.79
2023-03-30T09:04:57.341Z,63.61
2023-03-30T09:07:28.091Z,65.78
2023-03-30T09:09:57.233Z,65.12
2023-03-30T09:12:40.135Z,65.71
2023-03-30T09:15:31.774Z,65.50
2023-03-30T09:18:10.171Z,65.68
2023-03-30T09:20:40.948Z,66.29
2023-03-30T09:23:14.093Z,67.16
2023-03-30T09:26:26.269Z,65.31
2023-03-30T09:29:03.972Z,66.09
2023-03-30T09:31:41.633Z,66.51
2023-03-30T09:34:34.455Z,65.03
2023-03-30T09:37:06.089Z,64.96
2023-03-30T09:39:36.295Z,65.37
2023-03-30T09:42:34.084Z,65.32
2023-03-30T09:45:16.542Z,64.99
2023-03-30T09:47:43.852Z,64.02
2023-03-30T09:50:29.205Z,65.63
2023-03-30T09:53:10.754Z,65.30
2023-03-30T09:55:38.454Z,65.52
2023-03-30T09:58:21.457Z,64.66
2023-03-30T10:01:14.286Z,65.15
2023-03-30T10:03:43.095Z,65.85
2023-03-30T10:06:17.383Z,65.33
2023-03-30T10:08:52.109Z,64.60
2023-03-30T10:11:29.501Z,63.39
2023-03-30T10:13:58.409Z,63.13
2023-03-30T10:16:29.156Z,64.50
2023-03-30T10:19:01.570Z,63.36
2023-03-30T10:21:40.190Z,63.07
2023-03-30T10:24:23.624Z,62.98
2023-03-30T10:26:57.490Z,62.42
2023-03-30T10:29:28.489Z,64.57
2023-03-30T10:32:17.622Z,64.12
2023-03-30T10:34:48.250Z,63.65
2023-03-30T10:37:41.342Z,61.03
2023-03-30T10:40:19.200Z,62.19
2023-03-30T10:42:48.165Z,61.80
2023-03-30T10:45:45.340Z,61.26
2023-03-30T10:48:12.565Z,62.00
2023-03-30T10:50:51.165Z,59.74
2023-03-30T10:53:43.983Z,59.95
2023-03-30T10:56:53.997Z,60.06
2023-03-30T10:59:53.015Z,58.87
2023-03-30T11:02:29.351Z,58.28
2023-03-30T11:05:12.636Z,58.63
2023-03-30T11:08:02.683Z,59.91
2023-03-30T11:10:33.293Z,59.07
2023-03-30T11:13:12.040Z,57.53
2023-03-30T11:16:00.976Z,56.82
2023-03-30T11:18:34.239Z,54.59
2023-03-30T11:21:46.760Z,55.10
2023-03-30T11:24:21.815Z,55.32
2023-03-30T11:27:16.249Z,55.39
2023-03-30T11:30:16.433Z,54.39
2023-03-30T11:33:02.364Z,54.65
2023-03-30T11:35:46.262Z,54.08
2023-03-30T11:38:16.295Z,54.35
2023-03-30T11:40:44.027Z,55.09
2023-03-30T11:43:26.384Z,53.33
2023-03-30T11:46:27.592Z,54.56
2023-03-30T11:49:32.365Z,53.49
2023-03-30T11:52:27.762Z,53.50
2023-03-30T11:55:16.924Z,51.63
2023-03-30T11:57:43.875Z,52.61
2023-03-30T12:00:23.458Z,53.24
2023-03-30T12:02:56.436Z,52.90
2023-03-30T12:05:38.169Z,52.68
2023-03-30T12:08:26.542Z,51.80
2023-03-30T12:11:07.511Z,51.66
2023-03-30T12:13:48.402Z,50.18
2023-03-30T12:16:25.657Z,51.90
2023-03-30T12:19:03.716Z,50.53
2023-03-30T12:21:40.221Z,50.20
2023-03-30T12:24:17.017Z,51.08
2023-03-30T12:26:55.010Z,51.54
2023-03-30T12:30:27.698Z,49.47
2023-03-30T12:33:18.665Z,50.87
2023-03-30T12:35:53.777Z,51.07
2023-03-30T12:38:27.409Z,49.86
2023-03-30T12:41:14.586Z,49.44
2023-03-30T12:43:47.630Z,50.14
2023-03-30T12:46:31.282Z,50.05
2023-03-30T12:49:08.166Z,49.22
2023-03-30T12:52:04.123Z,49.91
2023-03-30T12:55:22.272Z,50.50
2023-03-30T12:58:06.703Z,48.95
2023-03-30T13:00:44.886Z,49.52
2023-03-30T13:03:18.517Z,48.20
2023-03-30T13:05:50.093Z,50.24
2023-03-30T13:08:29.848Z,49.66
2023-03-30T13:11:26.115Z,50.29
2023-03-30T13:14:01.223Z,50.84
2023-03-30T13:16:49.030Z,49.31
2023-03-30T13:19:29.542Z,50.34
2023-03-30T13:22:11.265Z,49.51
2023-03-30T13:25:00.227Z,50.41
2023-03-30T13:27:36.240Z,49.77
2023-03-30T13:30:09.129Z,49.53
2023-03-30T13:32:49.645Z,47.71
2023-03-30T13:35:31.099Z,50.45
2023-03-30T13:38:10.588Z,50.05
2023-03-30T13:41:14.167Z,49.82
2023-03-30T13:43:43.813Z,50.25
2023-03-30T13:46:27.305Z,50.13
2023-03-30T13:49:07.313Z,51.01
2023-03-30T13:51:38.152Z,49.49
2023-03-30T13:54:13.848Z,50.35
2023-03-30T13:56:48.302Z,50.18
2023-03-30T13:59:26.327Z,49.77
2023-03-30T14:01:57.467Z,49.33
2023-03-30T14:04:29.844Z,49.04
2023-03-30T14:06:58.612Z,50.06
2023-03-30T14:09:28.836Z,49.75
2023-03-30T14:11:59.240Z,48.40
2023-03-30T14:14:37.677Z,48.67
2023-03-30T14:17:15.897Z,43.88
2023-03-30T14:19:49.842Z,46.27
2023-03-30T14:22:23.543Z,46.26
2023-03-30T14:25:05.872Z,45.54
2023-03-30T14:27:38.666Z,44.25
2023-03-30T14:30:19.214Z,44.62
2023-03-30T14:32:46.389Z,43.76
2023-03-30T14:35:18.684Z,44.02
2023-03-30T14:37:51.804Z,44.30
2023-03-30T14:40:22.592Z,44.40
2023-03-30T14:42:54.786Z,45.59
2023-03-30T14:45:21.860Z,46.29
2023-03-30T14:47:49.810Z,46.09
2023-03-30T14:50:17.205Z,45.42
2023-03-30T14:52:46.839Z,45.65
2023-03-30T14:55:22.712Z,45.04
2023-03-30T14:57:50.764Z,45.88
2023-03-30T15:00:23.089Z,47.03
2023-03-30T15:03:02.313Z,47.46
2023-03-30T15:05:34.125Z,47.26
2023-03-30T15:08:03.317Z,45.37
2023-03-30T15:10:30.789Z,45.97
2023-03-30T15:12:58.336Z,44.69
2023-03-30T15:15:29.955Z,46.18
2023-03-30T15:17:58.416Z,46.34
2023-03-30T15:20:31.192Z,46.94
2023-03-30T15:22:59.970Z,46.02
2023-03-30T15:25:34.199Z,46.94
2023-03-30T15:28:04.188Z,45.83
2023-03-30T15:30:41.417Z,46.58
2023-03-30T15:33:31.514Z,47.40
2023-03-30T15:36:08.184Z,47.49
2023-03-30T15:38:45.400Z,47.05
2023-03-30T15:41:15.743Z,46.44
2023-03-30T15:43:58.151Z,46.70
2023-03-30T15:46:28.288Z,47.81
2023-03-30T15:48:57.959Z,47.68
2023-03-30T15:51:24.799Z,48.72
2023-03-30T15:54:18.306Z,49.18
2023-03-30T15:57:06.014Z,49.16
2023-03-30T15:59:39.748Z,49.46
2023-03-30T16:02:16.104Z,48.97
2023-03-30T16:04:43.459Z,49.23
2023-03-30T16:07:21.960Z,48.42
2023-03-30T16:09:49.298Z,48.33
2023-03-30T16:12:23.290Z,49.03
2023-03-30T16:14:51.278Z,47.17
2023-03-30T16:17:19.288Z,47.17
2023-03-30T16:19:46.741Z,47.74
2023-03-30T16:22:18.881Z,48.36
2023-03-30T16:24:46.424Z,48.51
2023-03-30T16:27:13.482Z,49.22
2023-03-30T16:29:40.356Z,49.76
2023-03-30T16:32:07.376Z,49.34
2023-03-30T16:34:35.968Z,50.01
2023-03-30T16:37:03.903Z,50.31
2023-03-30T16:39:30.919Z,50.47
2023-03-30T16:41:58.038Z,50.54
2023-03-30T16:44:25.899Z,50.25
2023-03-30T16:46:53.183Z,50.47
2023-03-30T16:49:25.405Z,50.80
2023-03-30T16:51:55.230Z,50.40
2023-03-30T16:54:32.134Z,50.67
2023-03-30T16:57:01.380Z,49.64
2023-03-30T16:59:30.982Z,50.21
2023-03-30T17:01:58.848Z,50.31
2023-03-30T17:04:26.726Z,50.17
2023-03-30T17:06:55.096Z,50.17
2023-03-30T17:09:22.492Z,50.11
2023-03-30T17:11:49.593Z,49.95
2023-03-30T17:14:17.029Z,49.83
2023-03-30T17:16:44.165Z,50.08
2023-03-30T17:19:13.243Z,50.82
2023-03-30T17:21:44.047Z,50.22
2023-03-30T17:24:12.721Z,50.54
2023-03-30T17:26:40.759Z,50.67
2023-03-30T17:29:07.792Z,50.70
2023-03-30T17:31:34.976Z,50.21
2023-03-30T17:34:02.036Z,50.53
2023-03-30T17:36:29.191Z,51.61
2023-03-30T17:38:56.777Z,51.95
2023-03-30T17:41:23.855Z,51.71
2023-03-30T17:43:51.735Z,52.33
2023-03-30T17:46:20.042Z,51.71
2023-03-30T17:48:47.921Z,51.58
2023-03-30T17:51:14.899Z,52.05
2023-03-30T17:53:44.693Z,52.18
2023-03-30T17:56:13.865Z,51.35
2023-03-30T17:58:41.041Z,52.07
2023-03-30T18:01:09.568Z,51.55
2023-03-30T18:03:39.394Z,52.19
2023-03-30T18:06:06.957Z,52.51
2023-03-30T18:08:34.384Z,52.63
2023-03-30T18:11:05.527Z,53.62
2023-03-30T18:13:32.886Z,53.66
2023-03-30T18:16:01.497Z,53.52
2023-03-30T18:18:31.007Z,53.67
2023-03-30T18:21:04.018Z,53.87
2023-03-30T18:23:34.439Z,54.04
2023-03-30T18:26:04.309Z,54.07
2023-03-30T18:28:31.982Z,54.05
2023-03-30T18:31:00.858Z,54.27
2023-03-30T18:33:28.703Z,54.84
2023-03-30T18:35:59.775Z,54.59
2023-03-30T18:38:32.542Z,54.86
2023-03-30T18:41:03.277Z,55.23
2023-03-30T18:43:30.853Z,55.19
2023-03-30T18:46:01.760Z,55.37
2023-03-30T18:48:38.165Z,55.60
2023-03-30T18:51:05.070Z,55.41
2023-03-30T18:53:37.094Z,55.26
2023-03-30T18:56:07.445Z,55.69
2023-03-30T18:58:41.721Z,55.57
2023-03-30T19:01:09.364Z,55.40
2023-03-30T19:03:40.796Z,55.32
2023-03-30T19:06:19.826Z,55.71
2023-03-30T19:08:47.161Z,55.83
2023-03-30T19:11:23.448Z,56.17
2023-03-30T19:13:51.642Z,56.04
2023-03-30T19:16:18.891Z,55.91
2023-03-30T19:18:45.915Z,56.42
2023-03-30T19:21:17.782Z,56.81
2023-03-30T19:23:45.026Z,56.24
2023-03-30T19:26:12.861Z,56.43
2023-03-30T19:28:40.828Z,56.19
2023-03-30T19:31:13.438Z,56.68
2023-03-30T19:33:40.768Z,56.92
2023-03-30T19:36:08.350Z,56.40
2023-03-30T19:38:35.883Z,56.90
2023-03-30T19:41:05.044Z,56.80
2023-03-30T19:43:32.302Z,56.99
2023-03-30T19:46:00.229Z,56.83
2023-03-30T19:48:27.670Z,56.76
2023-03-30T19:50:54.678Z,56.92
2023-03-30T19:53:21.785Z,57.01
2023-03-30T19:55:48.788Z,57.16
2023-03-30T19:58:16.238Z,57.13
2023-03-30T20:00:43.891Z,57.53
2023-03-30T20:03:12.598Z,57.53
2023-03-30T20:05:40.067Z,58.29
2023-03-30T20:08:17.366Z,58.13
2023-03-30T20:10:50.115Z,58.46
2023-03-30T20:13:17.266Z,58.53
2023-03-30T20:15:45.512Z,59.84
2023-03-30T20:18:15.692Z,59.78
2023-03-30T20:20:42.721Z,60.56
2023-03-30T20:23:09.781Z,60.05
2023-03-30T20:25:36.873Z,59.93
2023-03-30T20:28:03.852Z,59.81
2023-03-30T20:30:30.919Z,59.82
2023-03-30T20:33:07.465Z,60.20
2023-03-30T20:35:37.211Z,60.65
2023-03-30T20:38:06.170Z,60.52
2023-03-30T20:40:34.867Z,60.30
2023-03-30T20:43:10.299Z,60.46
2023-03-30T20:45:46.566Z,61.00
2023-03-30T20:48:26.531Z,61.05
2023-03-30T20:50:55.398Z,60.25
2023-03-30T20:53:23.200Z,60.41
2023-03-30T20:55:50.272Z,60.80
2023-03-30T20:58:17.436Z,61.50
2023-03-30T21:00:44.404Z,60.96
2023-03-30T21:03:14.282Z,60.74
2023-03-30T21:05:41.498Z,61.12
2023-03-30T21:08:08.436Z,61.34
2023-03-30T21:10:35.628Z,60.79
2023-03-30T21:13:02.647Z,61.09
2023-03-30T21:15:29.762Z,61.20
2023-03-30T21:17:56.808Z,61.24
2023-03-30T21:20:23.846Z,60.84
2023-03-30T21:22:51.717Z,61.67
2023-03-30T21:25:18.844Z,62.17
2023-03-30T21:27:45.857Z,62.26
2023-03-30T21:30:14.498Z,62.19
2023-03-30T21:32:41.598Z,62.02
2023-03-30T21:35:09.568Z,61.63
2023-03-30T21:37:36.740Z,61.23
2023-03-30T21:40:04.652Z,63.78
2023-03-30T21:42:34.388Z,62.28
2023-03-30T21:45:01.355Z,62.14
2023-03-30T21:47:28.537Z,62.37
2023-03-30T21:49:55.556Z,61.26
2023-03-30T21:52:22.487Z,60.92
2023-03-30T21:54:49.470Z,61.19
2023-03-30T21:57:16.497Z,60.95
2023-03-30T21:59:43.580Z,61.30
2023-03-30T22:02:10.640Z,61.67
2023-03-30T22:04:37.847Z,61.53
2023-03-30T22:07:05.116Z,61.46
2023-03-30T22:09:32.215Z,61.49
2023-03-30T22:11:59.250Z,61.90
2023-03-30T22:14:26.331Z,61.22
2023-03-30T22:16:58.173Z,60.87
2023-03-30T22:19:25.219Z,61.48
2023-03-30T22:21:52.456Z,61.94
2023-03-30T22:24:20.496Z,61.98
2023-03-30T22:26:49.329Z,61.14
2023-03-30T22:29:16.475Z,60.55
2023-03-30T22:31:43.471Z,60.46
2023-03-30T22:34:10.406Z,61.43
2023-03-30T22:36:37.379Z,60.60
2023-03-30T22:39:04.809Z,60.81
2023-03-30T22:41:31.915Z,60.82
2023-03-30T22:43:59.350Z,60.83
2023-03-30T22:46:27.697Z,61.00
2023-03-30T22:48:57.911Z,61.16
2023-03-30T22:51:28.679Z,60.81
2023-03-30T22:54:00.288Z,61.35
2023-03-30T22:56:31.447Z,61.41
2023-03-30T22:59:00.925Z,61.34
2023-03-30T23:01:32.580Z,61.61
2023-03-30T23:04:00.232Z,61.66
2023-03-30T23:06:27.234Z,61.45
2023-03-30T23:08:54.709Z,61.48
2023-03-30T23:11:21.789Z,61.65
2023-03-30T23:13:49.335Z,62.21
2023-03-30T23:16:16.479Z,61.86
2023-03-30T23:18:43.717Z,61.19
2023-03-30T23:21:11.364Z,61.15
2023-03-30T23:23:39.195Z,60.32
2023-03-30T23:26:09.917Z,60.50
2023-03-30T23:28:39.313Z,60.92
2023-03-30T23:31:12.422Z,61.40
2023-03-30T23:33:43.368Z,61.08
2023-03-30T23:36:14.582Z,60.78
2023-03-30T23:38:41.762Z,60.83
2023-03-30T23:41:09.261Z,60.38
2023-03-30T23:43:36.410Z,60.40
2023-03-30T23:46:04.194Z,60.21
2023-03-30T23:48:32.167Z,60.10
2023-03-30T23:50:59.353Z,60.01
2023-03-30T23:53:29.077Z,60.53
2023-03-30T23:55:56.193Z,59.95
2023-03-30T23:58:23.329Z,60.37
